函館空港の過去48時間の天気

函館空港 (Hakodate)

現在時刻: 1/23 17:15 JST (1/23 08:15 UTC) 以下の時間は現地時間です。

過去48時間のMETAR気象情報
時間 風向 風速(m/s) 視程 気温(℃) 湿度(%) 気圧(hPa) 天気現象
23 17:00 西 13 10km以上 0 74 995 弱いしゅう雪
23 16:14 西 14 10km以上 2 81 993 弱いしゅう雨 弱いしゅう雪
23 16:08 西南西 15 10km以上 4 81 992 弱いしゅう雨 弱いしゅう雪
23 15:29 南南東 10 10km以上 2 93 992 弱いしゅう雨 弱いしゅう雪
23 15:16 11 5,000m 2 100 992 しゅう雨 しゅう雪 もや
23 15:06 南南東 11 3,500m 2 100 992 しゅう雪 しゅう雨
23 15:00 南東 12 3,500m 2 93 992 しゅう雪 しゅう雨
23 14:38 南東 14 8,000m 2 93 992 弱いしゅう雨 弱いしゅう雪
23 14:11 南東 13 7,000m 2 93 992 しゅう雪 しゅう雨
23 14:00 南東 13 5,000m 2 93 992 しゅう雪 しゅう雨
23 13:32 南東 13 4,500m 2 93 992 しゅう雪 しゅう雨
23 13:11 南東 15 4,900m 2 93 991 弱いしゅう雨 弱いしゅう雪 もや
23 13:00 東南東 15 5,000m 2 93 991 弱いしゅう雨 弱いしゅう雪 もや
23 12:34 東南東 16 5,000m 2 87 992 弱いしゅう雨 弱いしゅう雪 もや
23 12:16 東南東 15 4,000m 2 93 992 弱いしゅう雨 弱いしゅう雪 もや
23 12:00 東南東 16 3,200m 1 93 993 弱いしゅう雪
23 11:48 東南東 16 4,000m 1 93 993 弱いしゅう雪
23 11:38 東南東 16 4,900m 1 93 994 弱いしゅう雪 弱いしゅう雨
23 11:00 東南東 17 5,000m 1 93 995 弱いしゅう雪 弱いしゅう雨
23 10:36 東南東 16 5,000m 1 100 996 弱いしゅう雨 弱いしゅう雪
23 10:27 東南東 16 4,000m 1 93 997 弱いしゅう雪 弱いしゅう雨
23 10:15 東南東 15 3,200m 1 93 997 弱いしゅう雪 弱いしゅう雨
23 10:00 東南東 15 2,400m 1 93 998 弱いしゅう雪 弱いしゅう雨
23 09:35 東南東 14 1,000m 1 93 999 しゅう雪 雨
23 09:22 南東 13 3,200m 1 100 999 弱いしゅう雪 弱いしゅう雨
23 09:15 東南東 13 2,400m 1 100 1000 弱いしゅう雪 弱いしゅう雨
23 09:00 東南東 13 2,300m 1 93 1000 弱いしゅう雪 弱いしゅう雨
23 08:45 東南東 13 3,200m 1 93 1000 弱いしゅう雪 弱いしゅう雨
23 08:39 東南東 13 3,100m 1 93 1000 弱いしゅう雪 弱いしゅう雨
23 08:25 東南東 12 4,900m 1 93 1000 弱いしゅう雪 弱いしゅう雨
23 08:12 東南東 13 5,000m 1 93 1000 弱いしゅう雪 弱いしゅう雨
23 08:00 東南東 14 3,200m 1 93 1001 弱いしゅう雪 弱いしゅう雨
23 07:47 東南東 13 1,600m 1 93 1001 弱いしゅう雪 弱いしゅう雨
23 07:34 東南東 14 1,500m 1 93 1001 しゅう雪 しゅう雨
23 07:23 東南東 12 2,300m 1 93 1001 弱いしゅう雪 弱いしゅう雨
23 07:15 南東 14 3,100m 2 87 1002 弱いしゅう雪 弱いしゅう雨
23 07:02 東南東 13 3,200m 1 93 1002 弱いしゅう雪 弱いしゅう雨
23 07:00 東南東 13 3,000m 1 93 1002 弱いしゅう雪 弱いしゅう雨
23 06:15 東南東 13 10km以上 2 93 1002 弱いしゅう雨 弱いしゅう雪
22 20:00 北東 5 10km以上 -4 68 1016
22 19:00 北東 3 10km以上 -4 68 1017 弱いしゅう雪
22 18:00 北東 3 10km以上 -5 68 1017
22 17:00 2 10km以上 -5 68 1017
22 16:00 2 10km以上 -4 58 1017
22 15:00 3 10km以上 -3 59 1018
22 14:00 北西 3 10km以上 -3 63 1019
22 13:00 北西 5 10km以上 -4 74 1019 周辺でしゅう雨
22 12:00 西北西 3 10km以上 -4 74 1020 弱いしゅう雪
22 11:00 西北西 2 10km以上 -5 79 1021 弱いしゅう雪
22 10:00 北西 2 10km以上 -6 79 1022
22 09:00 2 10km以上 -7 73 1021
22 08:00 北北東 3 10km以上 -12 92 1021
22 07:00 3 10km以上 -11 92 1021
22 06:10 北北西 2 10km以上 -10 85 1021 弱いしゅう雪
RJCH 230800Z 28025G36KT 9999 -SHSN FEW005 SCT015 BKN025 M00/M04 Q0995
RJCH 230714Z 26028G38KT 9999 -SHRASN FEW003 BKN015 BKN025 02/M01 Q0993 RMK 1ST003 5ST015 7CU025 A2933
RJCH 230708Z 25030KT 9999 -SHRASN FEW003 BKN015 BKN025 04/01 Q0992 RMK 1ST003 5ST015 7CU025 A2931
RJCH 230629Z 16020G31KT 9999 -SHRASN FEW003 BKN010 BKN030 02/01 Q0992 RMK 1ST003 5ST010 7CU030 A2930
RJCH 230616Z 17022G33KT 5000 SHRASN BR FEW003 BKN006 BKN008 02/02 Q0992 RMK 1ST003 5ST006 7ST008 A2931
RJCH 230606Z 16021G32KT 3500 SHSNRA FEW003 BKN005 BKN007 02/02 Q0992 RMK 1ST003 5ST005 7ST007 A2931
RJCH 230600Z 14024KT 3500 SHSNRA FEW003 BKN005 BKN007 02/01 Q0992
RJCH 230538Z 13028G39KT 8000 -SHRASN FEW003 BKN005 BKN010 02/01 Q0992 RMK 1ST003 5ST005 7ST010 A2930
RJCH 230511Z 14026G38KT 7000 SHSNRA FEW003 BKN005 BKN010 02/01 Q0992 RMK 1ST003 5ST005 7ST010 A2929
RJCH 230500Z 14025KT 5000 SHSNRA FEW003 BKN007 BKN010 02/01 Q0992
RJCH 230432Z 14026G36KT 4500 SHSNRA FEW003 BKN005 BKN010 02/01 Q0992 RMK 1ST003 5ST005 7ST010 A2930
RJCH 230411Z 13030G40KT 4900 -SHRASN BR FEW004 BKN007 BKN010 02/01 Q0991 RMK 1ST004 5ST007 7ST010 A2929
RJCH 230400Z 12030G40KT 5000 -SHRASN BR FEW004 BKN007 BKN010 02/01 Q0991
RJCH 230334Z 12031G44KT 5000 -SHRASN BR FEW005 SCT007 BKN010 02/00 Q0992 RMK 1ST005 4ST007 7ST010 A2930 P/FR
RJCH 230316Z 12029G40KT 4000 -SHRASN BR FEW004 BKN007 BKN012 02/01 Q0992 RMK 1ST004 5ST007 7ST012 A2931 P/FR
RJCH 230300Z 11031KT 3200 -SHSN FEW004 BKN007 BKN010 01/M00 Q0993
RJCH 230248Z 11031G41KT 4000 -SHSN FEW005 BKN008 BKN010 01/M00 Q0993 RMK 1ST005 5ST008 7ST010 A2935
RJCH 230238Z 11032KT 4900 -SHSNRA FEW005 BKN008 BKN010 01/M00 Q0994 RMK 1ST005 5ST008 7ST010 A2935
RJCH 230200Z 11033G44KT 5000 -SHSNRA FEW005 BKN010 BKN012 01/00 Q0995
RJCH 230136Z 11032G42KT 5000 -SHRASN FEW005 BKN010 BKN012 01/01 Q0996 RMK 1ST005 5ST010 7ST012 A2943 P/FR
RJCH 230127Z 11031G42KT 4000 -SHSNRA FEW004 BKN007 BKN010 01/00 Q0997 RMK 1ST004 5ST007 7ST010 A2944 P/FR
RJCH 230115Z 11030KT 3200 -SHSNRA FEW003 BKN007 BKN010 01/00 Q0997 RMK 1ST003 5ST007 7ST010 A2946 P/FR
RJCH 230100Z 11030G41KT 2400 R12/2000N -SHSNRA FEW003 BKN006 BKN010 01/00 Q0998
RJCH 230035Z 12027G37KT 1000 R12/1100VP2000D SHSNRA FEW002 BKN004 BKN008 01/00 Q0999 RMK 1ST002 5ST004 7ST008 A2951
RJCH 230022Z 13025G36KT 3200 R12/2000N -SHSNRA FEW003 BKN006 BKN012 01/01 Q0999 RMK 1ST003 5ST006 7ST012 A2953
RJCH 230015Z 12026G37KT 2400 R12/2000N -SHSNRA FEW003 BKN005 BKN010 01/01 Q1000 RMK 1ST003 5ST005 7ST010 A2953
RJCH 230000Z 12025KT 2300 R12/2000N -SHSNRA FEW002 BKN005 BKN008 01/00 Q1000
RJCH 222345Z 12025G35KT 3200 -SHSNRA FEW003 BKN007 BKN012 01/00 Q1000 RMK 1ST003 5ST007 7ST012 A2953
RJCH 222339Z 12026KT 3100 -SHSNRA FEW003 BKN006 BKN010 01/00 Q1000 RMK 1ST003 5ST006 7ST010 A2954
RJCH 222325Z 12024G36KT 4900 -SHSNRA FEW003 BKN006 BKN010 01/00 Q1000 RMK 1ST003 5ST006 7ST010 A2955
RJCH 222312Z 12025G35KT 5000 -SHSNRA FEW004 BKN007 BKN012 01/00 Q1000 RMK 1ST004 5ST007 7ST012 A2956
RJCH 222300Z 12028G38KT 3200 -SHSNRA FEW003 BKN006 BKN012 01/00 Q1001
RJCH 222247Z 12026G36KT 1600 R12/1500VP2000N -SHSNRA FEW003 BKN005 BKN010 01/00 Q1001 RMK 1ST003 5ST005 7ST010 A2956
RJCH 222234Z 12028G38KT 1500 R12/1600VP2000N SHSNRA FEW002 BKN004 BKN007 01/00 Q1001 RMK 1ST002 5ST004 7ST007 A2958
RJCH 222223Z 12024G39KT 2300 R12/2000N -SHSNRA FEW002 BKN005 BKN008 01/00 Q1001 RMK 1ST002 5ST005 7ST008 A2959
RJCH 222215Z 13027G37KT 3100 -SHSNRA FEW003 BKN006 BKN010 02/00 Q1002 RMK 1ST003 5ST006 7ST010 A2959
RJCH 222202Z 12025G35KT 3200 -SHSNRA FEW003 BKN007 BKN010 01/00 Q1002 RMK 1ST003 5ST007 7ST010 A2959
RJCH 222200Z 12026KT 3000 -SHSNRA FEW002 BKN006 BKN010 01/00 Q1002
RJCH 222115Z 11025G35KT 9999 -SHRASN FEW004 BKN008 BKN012 02/01 Q1002 RMK 1ST004 5ST008 7ST012 A2961
RJCH 221100Z 05009KT 9999 FEW010 SCT020 BKN035 M04/M09 Q1016
RJCH 221000Z 05006KT 9999 -SHSN FEW005 SCT015 BKN030 M04/M09 Q1017
RJCH 220900Z 05005KT 9999 FEW035 SCT045 BKN050 M05/M10 Q1017
RJCH 220800Z 35003KT 9999 FEW040 SCT060 BKN160 M05/M10 Q1017
RJCH 220700Z 35004KT 330V030 9999 FEW035 BKN090 M04/M11 Q1017
RJCH 220600Z 35005KT 310V010 9999 FEW025 SCT045 BKN060 M03/M10 Q1018
RJCH 220500Z 31006KT 9999 FEW025 SCT040 BKN070 M03/M09 Q1019
RJCH 220400Z 32009KT 9999 VCSH FEW005 SCT030 BKN040 M04/M08 Q1019
RJCH 220300Z 30006KT 9999 -SHSN FEW006 SCT030 BKN045 M04/M08 Q1020
RJCH 220200Z 30004KT 9999 -SHSN FEW030 SCT035 M05/M08 Q1021
RJCH 220100Z 32004KT 9999 FEW030 M06/M09 Q1022
RJCH 220000Z 35003KT 300V020 9999 FEW030 SCT040 M07/M11 Q1021
RJCH 212300Z 02006KT 9999 FEW025 SCT030 M12/M13 Q1021
RJCH 212200Z 36006KT 9999 R12/1600VP2000N FEW025 SCT040 M11/M12 Q1021
RJCH 212110Z 34003KT 310V020 9999 -SHSN FEW018 SCT025 BKN035 M10/M12 Q1021 RMK 1ST018 3CU025 5CU035 A3016